Time;durP1;ratioP1;P1;durP2;ratioP2;P2;SDS_P1;SDS_P2;PMS_P1;PMS_P2;Temp;Humidity;BMP_temperature;BMP_pressure;BME280_temperature;BME280_humidity;BME280_pressure;Samples;Min_cycle;Max_cycle;Signal;HPM_P1;HPM_P2
2022/06/24 00:02:05;;;;;;;4.30;3.72;;;;;;;22.84;44.16;100518.78;5024927;28;20138;-69
2022/06/24 00:04:31;;;;;;;6.93;3.72;;;;;;;22.75;44.84;100532.13;5022668;28;20045;-69
2022/06/24 00:06:58;;;;;;;6.43;3.72;;;;;;;23.03;43.89;100529.16;5025544;28;20053;-69
2022/06/24 00:09:28;;;;;;;4.32;3.85;;;;;;;22.83;44.65;100523.31;5022635;28;20099;-69
2022/06/24 00:12:02;;;;;;;6.90;4.25;;;;;;;22.70;45.08;100533.59;5025044;28;20045;-69
2022/06/24 00:14:30;;;;;;;5.13;3.72;;;;;;;22.74;45.23;100519.75;5024325;28;20148;-69
2022/06/24 00:16:59;;;;;;;7.63;3.92;;;;;;;22.63;45.19;100517.34;5026486;28;20046;-69
2022/06/24 00:19:27;;;;;;;3.75;3.30;;;;;;;22.82;45.03;100520.78;5025523;28;20049;-69
2022/06/24 00:22:05;;;;;;;4.68;3.80;;;;;;;22.59;45.40;100512.47;5025096;28;20572;-69
2022/06/24 00:24:33;;;;;;;4.40;3.60;;;;;;;22.69;45.24;100519.41;5025009;28;20095;-69
2022/06/24 00:27:00;;;;;;;8.27;4.22;;;;;;;22.56;45.68;100515.47;5023876;28;20049;-69
2022/06/24 00:29:27;;;;;;;6.28;3.78;;;;;;;22.44;45.91;100512.25;5024000;28;20045;-69
2022/06/24 00:32:03;;;;;;;7.05;3.58;;;;;;;22.39;46.37;100513.75;5023079;28;20042;-69
2022/06/24 00:34:29;;;;;;;8.80;3.55;;;;;;;22.61;45.73;100508.66;5024740;28;20077;-69
2022/06/24 00:36:56;;;;;;;5.38;3.35;;;;;;;22.43;46.15;100523.13;5023658;28;20049;-69
2022/06/24 00:39:32;;;;;;;4.13;3.60;;;;;;;22.57;46.34;100518.00;5026153;28;20103;-69
2022/06/24 00:41:59;;;;;;;4.97;3.90;;;;;;;22.43;46.50;100518.59;5025537;28;20590;-69
2022/06/24 00:44:27;;;;;;;7.45;3.70;;;;;;;22.59;46.28;100515.16;5023076;28;20095;-70
2022/06/24 00:46:58;;;;;;;4.53;3.40;;;;;;;22.59;45.99;100517.81;5023995;28;20067;-69
2022/06/24 00:49:28;;;;;;;6.40;3.92;;;;;;;22.22;46.84;100519.00;5024666;28;20045;-69
2022/06/24 00:51:55;;;;;;;5.93;3.97;;;;;;;21.86;47.77;100520.09;5023606;28;20138;-69
2022/06/24 00:54:24;;;;;;;6.25;4.10;;;;;;;22.14;47.20;100512.78;5024147;28;20107;-69
2022/06/24 00:56:56;;;;;;;7.45;4.10;;;;;;;21.78;48.05;100520.03;5027242;28;20045;-68
2022/06/24 00:59:23;;;;;;;7.10;3.90;;;;;;;22.07;47.55;100515.25;5023134;28;20056;-67
2022/06/24 01:01:50;;;;;;;11.73;3.97;;;;;;;22.02;47.21;100514.91;5026194;28;20564;-67
2022/06/24 01:04:17;;;;;;;5.57;4.00;;;;;;;21.77;48.02;100518.34;5028487;28;20498;-67
2022/06/24 01:06:45;;;;;;;6.60;4.20;;;;;;;21.74;48.30;100513.34;5023726;28;20081;-69
2022/06/24 01:09:12;;;;;;;4.50;3.67;;;;;;;22.00;47.70;100516.03;5024255;28;20049;-69
2022/06/24 01:11:40;;;;;;;7.07;4.30;;;;;;;21.71;48.85;100519.84;5024027;28;20037;-69
2022/06/24 01:14:08;;;;;;;4.63;3.97;;;;;;;22.01;47.67;100513.22;5017284;28;20045;-69
2022/06/24 01:16:35;;;;;;;4.78;4.00;;;;;;;21.73;48.23;100511.66;5020344;28;20053;-69
2022/06/24 01:19:04;;;;;;;8.55;4.15;;;;;;;21.50;49.13;100505.16;5021277;28;20045;-66
2022/06/24 01:21:33;;;;;;;7.32;4.75;;;;;;;21.38;49.44;100503.72;5028083;28;20095;-66
2022/06/24 01:24:08;;;;;;;4.90;3.67;;;;;;;21.58;49.10;100505.25;5026120;28;20056;-66
2022/06/24 01:26:35;;;;;;;6.53;4.25;;;;;;;21.56;48.98;100499.19;5022853;28;20049;-66
2022/06/24 01:29:01;;;;;;;5.93;4.15;;;;;;;21.84;48.66;100506.06;5022319;28;20069;-66
2022/06/24 01:31:27;;;;;;;7.00;4.97;;;;;;;21.64;49.06;100492.09;5023065;28;20046;-66
2022/06/24 01:33:54;;;;;;;6.40;4.32;;;;;;;21.92;48.22;100494.63;5029785;28;20045;-66
2022/06/24 01:36:20;;;;;;;6.15;4.35;;;;;;;21.82;49.03;100497.38;5008518;28;20214;-66
2022/06/24 01:38:48;;;;;;;9.13;4.28;;;;;;;21.46;49.99;100495.81;5008029;28;20054;-66
2022/06/24 01:41:14;;;;;;;5.05;4.28;;;;;;;21.42;49.75;100487.28;5026283;28;20113;-66
2022/06/24 01:43:41;;;;;;;6.57;4.53;;;;;;;21.48;49.47;100493.81;5035534;28;20096;-66
2022/06/24 01:46:07;;;;;;;6.15;4.60;;;;;;;21.39;49.28;100489.41;5027072;28;20114;-66
2022/06/24 01:48:34;;;;;;;6.53;4.80;;;;;;;21.31;49.76;100480.34;5025497;28;20049;-66
2022/06/24 01:51:00;;;;;;;6.25;4.53;;;;;;;21.29;50.05;100486.81;5028324;28;20445;-66
2022/06/24 01:53:27;;;;;;;7.72;4.68;;;;;;;21.25;50.30;100480.94;5028129;28;20092;-66
2022/06/24 01:55:55;;;;;;;7.07;4.88;;;;;;;21.22;50.36;100483.09;5024728;28;20072;-66
2022/06/24 01:58:21;;;;;;;8.02;4.60;;;;;;;21.24;50.26;100479.28;5027457;28;20045;-66
2022/06/24 02:00:47;;;;;;;6.95;4.70;;;;;;;21.29;49.96;100481.47;5033297;28;20046;-66
2022/06/24 02:03:14;;;;;;;6.20;4.50;;;;;;;21.15;50.44;100482.03;5024314;28;20053;-66
2022/06/24 02:05:41;;;;;;;7.03;4.78;;;;;;;21.19;49.99;100488.72;5027012;28;20049;-66
2022/06/24 02:08:08;;;;;;;12.00;5.35;;;;;;;21.27;50.11;100483.47;5027205;28;20049;-66
2022/06/24 02:13:29;;;;;;;9.23;5.22;;;;;;;21.39;49.37;100474.25;5028281;28;20060;-66
2022/06/24 02:15:56;;;;;;;5.53;4.80;;;;;;;20.80;50.93;100488.16;5026373;28;20508;-66
2022/06/24 02:18:23;;;;;;;6.88;5.10;;;;;;;20.73;51.24;100495.09;5026952;28;20461;-66
2022/06/24 02:20:50;;;;;;;7.68;5.30;;;;;;;20.47;52.01;100483.47;5031237;28;20041;-66
2022/06/24 02:23:18;;;;;;;7.05;5.00;;;;;;;20.74;51.59;100486.09;5023452;28;20045;-66
2022/06/24 02:25:44;;;;;;;6.82;5.40;;;;;;;20.92;51.26;100484.28;5026777;28;20050;-66
2022/06/24 02:28:11;;;;;;;5.40;4.90;;;;;;;20.84;51.68;100486.88;5027118;28;20049;-66
2022/06/24 02:30:39;;;;;;;5.20;4.70;;;;;;;20.71;52.31;100473.91;5024112;28;20200;-66
2022/06/24 02:33:05;;;;;;;7.25;4.93;;;;;;;20.67;52.51;100475.19;5026612;28;20045;-66
2022/06/24 02:35:32;;;;;;;8.27;5.28;;;;;;;20.57;52.35;100476.25;5027229;28;20049;-66
2022/06/24 02:37:58;;;;;;;7.45;4.97;;;;;;;20.48;52.99;100485.97;5025894;28;20041;-66
2022/06/24 02:43:13;;;;;;;7.18;5.32;;;;;;;20.34;53.16;100468.66;5024746;28;20421;-66
2022/06/24 02:45:41;;;;;;;11.95;5.38;;;;;;;20.43;53.02;100468.78;5026495;28;20478;-66
2022/06/24 02:48:08;;;;;;;9.43;5.03;;;;;;;19.93;54.92;100463.78;5027425;28;20069;-66
2022/06/24 02:50:38;;;;;;;8.15;5.80;;;;;;;19.76;55.20;100465.38;5032738;28;20569;-65
2022/06/24 02:53:05;;;;;;;7.85;5.68;;;;;;;19.46;56.51;100473.56;5027259;28;20115;-65
2022/06/24 02:55:31;;;;;;;7.20;5.38;;;;;;;19.21;57.13;100467.00;5025063;28;20123;-65
2022/06/24 02:57:58;;;;;;;10.40;5.05;;;;;;;19.14;57.94;100465.84;5025242;28;20053;-65
2022/06/24 03:00:24;;;;;;;8.52;6.07;;;;;;;19.18;57.51;100459.28;5025098;28;20073;-65
2022/06/24 03:02:52;;;;;;;7.18;5.82;;;;;;;19.04;58.03;100458.84;5027158;28;20493;-65
2022/06/24 03:05:18;;;;;;;9.10;6.20;;;;;;;19.30;56.82;100460.81;5022443;28;20045;-66
2022/06/24 03:07:44;;;;;;;12.60;5.50;;;;;;;19.59;55.69;100454.63;5006543;28;20100;-66
2022/06/24 03:10:11;;;;;;;10.50;5.28;;;;;;;19.41;56.17;100457.16;5013002;28;20049;-65
2022/06/24 03:12:37;;;;;;;7.47;5.45;;;;;;;19.58;56.19;100447.66;5035147;28;20759;-65
2022/06/24 03:15:04;;;;;;;11.35;6.47;;;;;;;19.65;55.57;100449.59;5045997;28;20068;-65
2022/06/24 03:17:31;;;;;;;9.70;6.25;;;;;;;19.76;54.86;100446.75;5045650;28;20567;-66
2022/06/24 03:19:58;;;;;;;15.02;6.18;;;;;;;19.86;54.81;100442.22;5042238;28;20048;-65
2022/06/24 03:22:25;;;;;;;9.98;6.45;;;;;;;20.12;53.80;100446.88;5024341;28;20072;-65
2022/06/24 03:24:51;;;;;;;12.02;6.63;;;;;;;19.92;53.99;100440.78;5027021;28;20046;-65
2022/06/24 03:27:17;;;;;;;8.73;6.32;;;;;;;20.18;53.26;100439.13;5024222;28;20069;-66
2022/06/24 03:29:44;;;;;;;11.40;6.22;;;;;;;20.34;52.71;100431.38;5022652;28;20135;-66
2022/06/24 03:32:10;;;;;;;12.52;6.47;;;;;;;20.20;52.87;100439.00;5026010;28;20115;-66
2022/06/24 03:34:37;;;;;;;12.75;6.20;;;;;;;20.61;51.43;100440.34;5024708;28;20560;-66
2022/06/24 03:37:04;;;;;;;8.00;6.20;;;;;;;20.44;52.10;100433.13;5025244;28;20069;-66
2022/06/24 03:39:31;;;;;;;9.57;6.70;;;;;;;20.89;50.72;100436.59;5025001;28;20068;-66
2022/06/24 03:41:57;;;;;;;9.02;6.32;;;;;;;20.89;50.07;100426.78;5024596;28;20045;-66
2022/06/24 03:44:24;;;;;;;8.55;6.40;;;;;;;20.88;50.51;100427.78;5025610;28;20110;-66
2022/06/24 03:46:50;;;;;;;8.85;6.10;;;;;;;20.75;50.65;100442.47;5024623;28;20091;-66
2022/06/24 03:49:19;;;;;;;13.93;6.28;;;;;;;20.69;50.85;100435.94;5023135;28;20058;-66
2022/06/24 03:51:45;;;;;;;8.10;6.07;;;;;;;20.67;51.26;100431.72;5031013;28;20053;-66
2022/06/24 03:54:13;;;;;;;10.75;6.45;;;;;;;20.98;50.51;100422.38;5025941;28;20087;-66
2022/06/24 03:56:39;;;;;;;9.90;5.85;;;;;;;20.93;50.30;100422.00;5034437;28;20122;-66
2022/06/24 03:59:05;;;;;;;13.73;6.55;;;;;;;20.86;50.61;100420.94;5025880;28;20053;-65
2022/06/24 04:01:32;;;;;;;9.18;5.90;;;;;;;21.07;50.10;100423.25;5026843;28;20041;-66
2022/06/24 04:03:58;;;;;;;7.97;5.85;;;;;;;21.46;48.98;100418.44;5023797;28;20045;-66
2022/06/24 04:06:25;;;;;;;7.80;6.50;;;;;;;21.23;49.67;100421.63;5026422;28;20395;-66
2022/06/24 04:08:52;;;;;;;7.93;6.20;;;;;;;21.24;49.66;100419.78;5040612;28;20449;-66
2022/06/24 04:11:20;;;;;;;12.50;6.03;;;;;;;21.04;50.49;100412.91;5028463;28;20073;-66
2022/06/24 04:13:46;;;;;;;8.23;6.25;;;;;;;20.65;51.52;100412.41;5040147;28;20049;-66
2022/06/24 04:16:13;;;;;;;8.70;5.85;;;;;;;20.69;51.46;100413.78;5026538;28;20474;-66
2022/06/24 04:18:39;;;;;;;7.30;6.05;;;;;;;20.91;50.98;100408.00;5036882;28;20563;-66
2022/06/24 04:21:11;;;;;;;9.23;6.03;;;;;;;20.53;52.26;100418.94;5035479;28;20057;-66
2022/06/24 04:23:37;;;;;;;8.00;6.30;;;;;;;20.82;51.91;100403.56;5027578;28;20091;-66
2022/06/24 04:26:04;;;;;;;8.07;6.18;;;;;;;21.14;50.63;100398.53;5031922;28;20061;-66
2022/06/24 04:28:31;;;;;;;12.02;6.30;;;;;;;21.07;50.82;100400.13;5043705;28;20076;-66
2022/06/24 04:30:58;;;;;;;9.70;6.22;;;;;;;21.33;49.85;100403.69;5044767;28;20106;-65
2022/06/24 04:33:24;;;;;;;9.00;5.82;;;;;;;21.22;50.62;100401.25;5030713;28;20118;-65
2022/06/24 04:35:50;;;;;;;11.52;6.07;;;;;;;21.24;50.62;100399.28;5025322;28;20095;-65
2022/06/24 04:38:17;;;;;;;9.70;5.57;;;;;;;21.44;50.55;100404.41;5032445;28;20076;-65
2022/06/24 04:40:43;;;;;;;10.63;5.93;;;;;;;21.64;49.88;100404.06;5042819;28;20053;-65
2022/06/24 04:43:10;;;;;;;8.38;5.78;;;;;;;21.72;49.47;100393.44;5044713;28;20041;-65
2022/06/24 04:45:38;;;;;;;11.85;5.80;;;;;;;21.56;50.33;100398.66;5035318;28;20755;-65
2022/06/24 04:48:05;;;;;;;13.75;6.50;;;;;;;21.69;49.52;100396.38;5030865;28;20045;-65
2022/06/24 04:50:32;;;;;;;7.95;5.65;;;;;;;21.64;50.26;100395.19;5039237;28;20053;-65
2022/06/24 04:52:58;;;;;;;9.20;5.45;;;;;;;21.87;49.20;100391.00;5026139;28;20045;-65
2022/06/24 04:55:24;;;;;;;6.72;5.53;;;;;;;21.86;49.18;100389.31;5037250;28;20049;-65
2022/06/24 04:57:51;;;;;;;8.13;5.55;;;;;;;21.83;49.45;100394.97;5035508;28;20123;-65
2022/06/24 05:00:18;;;;;;;10.60;5.25;;;;;;;21.91;49.23;100400.38;5028525;28;20109;-65
2022/06/24 05:02:46;;;;;;;6.35;5.28;;;;;;;22.17;48.92;100393.13;5022069;28;20041;-65
2022/06/24 05:05:13;;;;;;;10.63;5.32;;;;;;;22.45;48.04;100398.22;5023568;28;20575;-65
2022/06/24 05:07:40;;;;;;;9.35;4.97;;;;;;;22.45;48.28;100396.38;5029711;28;20049;-65
2022/06/24 05:10:07;;;;;;;11.43;5.10;;;;;;;22.74;47.34;100395.97;5046668;28;20509;-65
2022/06/24 05:12:34;;;;;;;9.15;5.53;;;;;;;22.60;47.49;100391.25;5047791;28;20037;-65
2022/06/24 05:15:00;;;;;;;6.80;5.72;;;;;;;22.50;48.13;100387.88;5042939;28;20060;-65
2022/06/24 05:17:27;;;;;;;7.10;5.10;;;;;;;22.82;47.09;100392.47;5028179;28;20163;-65
2022/06/24 05:19:55;;;;;;;5.38;4.80;;;;;;;23.13;46.64;100393.47;5048124;28;20048;-65
2022/06/24 05:22:21;;;;;;;8.60;5.00;;;;;;;22.95;46.88;100387.47;5034429;28;20119;-65
2022/06/24 05:24:47;;;;;;;9.85;4.75;;;;;;;22.97;47.00;100391.63;5027369;28;20045;-65
2022/06/24 05:27:14;;;;;;;6.53;4.72;;;;;;;23.44;45.94;100388.25;5030481;28;20037;-65
2022/06/24 05:29:40;;;;;;;8.35;5.43;;;;;;;23.77;45.39;100381.81;5028718;28;20551;-65
2022/06/24 05:32:07;;;;;;;9.38;5.38;;;;;;;23.97;44.72;100392.97;5026944;28;20046;-65
2022/06/24 05:34:33;;;;;;;9.48;5.10;;;;;;;24.24;43.71;100388.00;5027686;28;20061;-65
2022/06/24 05:37:02;;;;;;;5.95;4.70;;;;;;;24.22;44.05;100376.63;5028788;28;20041;-65
2022/06/24 05:39:28;;;;;;;8.82;4.82;;;;;;;24.67;43.67;100378.53;5037330;28;20413;-65
2022/06/24 05:41:55;;;;;;;8.13;5.10;;;;;;;25.09;41.99;100377.22;5028019;28;20107;-65
2022/06/24 05:44:21;;;;;;;7.82;4.85;;;;;;;24.89;42.64;100379.56;5046090;28;20049;-65
2022/06/24 05:46:47;;;;;;;10.02;4.72;;;;;;;25.81;40.99;100372.13;5046452;28;20045;-65
2022/06/24 05:49:14;;;;;;;6.97;4.95;;;;;;;25.63;40.38;100384.09;5035658;28;20150;-65
2022/06/24 05:51:40;;;;;;;12.18;5.53;;;;;;;25.09;41.88;100378.03;5027325;28;20045;-65
2022/06/24 05:56:52;;;;;;;6.78;4.82;;;;;;;26.10;40.35;100362.16;5045256;28;20052;-65
2022/06/24 05:59:18;;;;;;;5.57;4.40;;;;;;;26.57;40.08;100360.84;5032954;28;20041;-65
2022/06/24 06:01:44;;;;;;;7.05;4.55;;;;;;;26.02;40.71;100367.66;5046717;28;20060;-65
2022/06/24 06:04:11;;;;;;;5.88;4.88;;;;;;;26.67;39.73;100369.44;5031024;28;20053;-65
2022/06/24 06:06:37;;;;;;;11.00;4.57;;;;;;;26.58;39.72;100365.22;5027604;28;20053;-65
2022/06/24 06:09:05;;;;;;;6.53;4.55;;;;;;;26.33;39.50;100361.22;5041786;28;20103;-65
2022/06/24 06:11:32;;;;;;;9.25;4.40;;;;;;;26.32;40.01;100367.59;5045743;28;20102;-65
2022/06/24 06:13:59;;;;;;;8.30;4.00;;;;;;;27.26;39.28;100367.28;5033556;28;20056;-65
2022/06/24 06:16:27;;;;;;;6.13;4.07;;;;;;;27.28;37.97;100367.91;5027099;28;20053;-65
2022/06/24 06:18:53;;;;;;;6.43;3.95;;;;;;;28.12;35.78;100368.69;5039265;28;20102;-65
2022/06/24 06:21:19;;;;;;;7.82;4.18;;;;;;;28.11;35.73;100367.00;5044623;28;20099;-65
2022/06/24 06:23:46;;;;;;;5.47;4.15;;;;;;;27.01;37.58;100363.38;5027329;28;20057;-65
2022/06/24 06:26:14;;;;;;;7.07;4.22;;;;;;;26.93;37.60;100364.34;5027403;28;20046;-65
2022/06/24 06:28:42;;;;;;;6.63;4.25;;;;;;;27.29;38.40;100366.06;5030571;28;20041;-65
2022/06/24 06:31:09;;;;;;;7.20;3.33;;;;;;;27.53;36.06;100369.16;5039146;28;20064;-65
2022/06/24 06:33:36;;;;;;;6.90;3.60;;;;;;;26.90;37.42;100359.31;5034659;28;20045;-65
2022/06/24 06:36:05;;;;;;;4.65;3.67;;;;;;;27.11;37.82;100369.25;5027766;28;20049;-65
2022/06/24 06:38:32;;;;;;;6.47;3.80;;;;;;;27.54;35.99;100362.75;5036384;28;20048;-65
2022/06/24 06:40:58;;;;;;;5.45;3.80;;;;;;;27.75;35.80;100367.22;5045518;28;20045;-65
2022/06/24 06:43:24;;;;;;;7.47;4.18;;;;;;;27.95;34.79;100362.75;5035493;28;20045;-64
2022/06/24 06:45:53;;;;;;;5.82;3.78;;;;;;;27.56;35.69;100362.56;5039588;28;20122;-64
2022/06/24 06:48:20;;;;;;;7.05;3.85;;;;;;;27.89;36.07;100358.19;5026037;28;20095;-64
2022/06/24 06:50:46;;;;;;;8.95;3.75;;;;;;;27.88;35.17;100378.06;5024782;28;20045;-64
2022/06/24 06:53:13;;;;;;;4.95;3.75;;;;;;;27.65;35.63;100360.50;5027166;28;20041;-71
2022/06/24 06:55:39;;;;;;;4.47;3.50;;;;;;;28.73;34.13;100358.69;5026420;28;20053;-71
2022/06/24 06:58:05;;;;;;;8.85;3.90;;;;;;;28.92;33.66;100349.75;5027149;28;20049;-71
2022/06/24 07:00:32;;;;;;;8.82;3.75;;;;;;;28.81;33.92;100345.00;5028583;28;20433;-71
2022/06/24 07:02:59;;;;;;;6.82;3.80;;;;;;;29.17;34.25;100343.72;5025860;28;20037;-71
2022/06/24 07:05:26;;;;;;;6.80;4.00;;;;;;;28.78;34.28;100339.16;5026491;28;20720;-71
2022/06/24 07:07:52;;;;;;;5.72;3.60;;;;;;;28.61;33.56;100327.06;5026222;28;20092;-71
2022/06/24 07:10:18;;;;;;;5.45;3.60;;;;;;;29.07;34.45;100327.13;5041592;28;20041;-71
2022/06/24 07:12:45;;;;;;;6.80;3.50;;;;;;;28.84;33.38;100324.84;5046178;28;20048;-71
2022/06/24 07:15:14;;;;;;;14.00;3.72;;;;;;;29.05;33.48;100323.81;5029088;28;20045;-71
2022/06/24 07:17:40;;;;;;;7.63;4.10;;;;;;;29.07;34.12;100319.03;5031685;28;20085;-71
2022/06/24 07:20:09;;;;;;;14.15;4.18;;;;;;;28.80;33.17;100329.81;5024943;28;20065;-71
2022/06/24 07:22:35;;;;;;;5.25;3.50;;;;;;;28.51;33.64;100335.56;5025240;28;20134;-71
2022/06/24 07:25:02;;;;;;;6.68;3.72;;;;;;;28.49;34.16;100330.38;5024696;28;20585;-71
2022/06/24 07:27:28;;;;;;;6.70;3.67;;;;;;;28.48;35.05;100320.66;5026684;28;20065;-71
2022/06/24 07:29:55;;;;;;;11.43;3.30;;;;;;;29.15;33.26;100313.41;5023005;28;20046;-71
2022/06/24 07:32:22;;;;;;;4.18;3.10;;;;;;;29.18;33.08;100313.00;5026531;28;20104;-71
2022/06/24 07:34:48;;;;;;;6.55;3.53;;;;;;;29.43;32.11;100297.78;5024999;28;20049;-71
2022/06/24 07:37:16;;;;;;;5.97;3.45;;;;;;;29.63;32.63;100303.97;5024518;28;20037;-71
2022/06/24 07:39:42;;;;;;;5.50;3.58;;;;;;;29.90;30.92;100308.25;5024385;28;20046;-71
2022/06/24 07:42:08;;;;;;;4.53;3.13;;;;;;;29.61;31.48;100291.69;5026676;28;20045;-71
2022/06/24 07:44:35;;;;;;;8.00;3.10;;;;;;;30.40;29.87;100293.00;5036271;28;20045;-71
2022/06/24 07:47:01;;;;;;;6.10;3.20;;;;;;;30.44;29.92;100282.59;5045527;28;20475;-71
2022/06/24 07:49:27;;;;;;;7.28;3.25;;;;;;;31.18;29.46;100284.47;5031682;28;20041;-71
2022/06/24 07:51:54;;;;;;;6.32;2.97;;;;;;;30.95;29.05;100286.94;5023975;28;20100;-70
2022/06/24 07:54:22;;;;;;;8.38;2.60;;;;;;;31.76;30.77;100293.00;5028574;28;20049;-70
2022/06/24 07:56:56;;;;;;;4.00;2.58;;;;;;;30.30;28.79;100286.41;5045186;28;20667;-70
2022/06/24 07:59:23;;;;;;;6.07;2.58;;;;;;;31.09;28.01;100283.09;5031217;28;20060;-71
2022/06/24 08:01:50;;;;;;;4.82;2.45;;;;;;;31.15;27.96;100284.94;5024511;28;20517;-71
2022/06/24 08:04:16;;;;;;;10.60;2.40;;;;;;;32.10;27.31;100277.97;5022920;28;20088;-71
2022/06/24 08:06:46;;;;;;;4.05;2.53;;;;;;;31.17;27.83;100285.53;5025156;28;20049;-71
2022/06/24 08:09:13;;;;;;;5.40;2.30;;;;;;;31.38;26.62;100279.66;5023691;28;20049;-71
2022/06/24 08:11:41;;;;;;;6.60;2.42;;;;;;;31.04;26.94;100272.97;5038950;28;20041;-71
2022/06/24 08:14:07;;;;;;;6.53;2.20;;;;;;;31.36;25.88;100270.94;5046364;28;20037;-71
2022/06/24 08:16:34;;;;;;;6.05;2.67;;;;;;;31.71;26.24;100269.28;5045035;28;20306;-71
2022/06/24 08:19:00;;;;;;;2.65;1.90;;;;;;;31.29;24.80;100265.59;5043589;28;20077;-71
2022/06/24 08:21:27;;;;;;;4.75;2.30;;;;;;;31.75;25.00;100265.06;5031850;28;20746;-71
2022/06/24 08:23:53;;;;;;;4.95;2.20;;;;;;;32.04;24.75;100262.59;5025297;28;20055;-71
2022/06/24 08:26:20;;;;;;;4.80;2.10;;;;;;;31.84;23.55;100260.16;5023659;28;20050;-71
2022/06/24 08:28:48;;;;;;;4.03;1.85;;;;;;;30.66;24.67;100250.56;5024436;28;20091;-71
2022/06/24 08:31:14;;;;;;;6.80;2.17;;;;;;;30.70;25.36;100247.22;5024830;28;20065;-70
2022/06/24 08:33:41;;;;;;;9.20;2.17;;;;;;;31.42;25.96;100240.22;5023476;28;20119;-70
2022/06/24 08:36:08;;;;;;;3.97;1.98;;;;;;;32.53;24.62;100237.00;5026769;28;20053;-70
2022/06/24 08:38:34;;;;;;;8.80;2.20;;;;;;;31.95;24.43;100236.84;5038142;28;20041;-70
2022/06/24 08:41:03;;;;;;;4.32;2.00;;;;;;;31.19;25.89;100240.91;5044511;28;20048;-70
2022/06/24 08:43:31;;;;;;;6.22;2.25;;;;;;;31.65;25.79;100226.00;5044448;28;20041;-70
2022/06/24 08:45:59;;;;;;;2.97;2.05;;;;;;;31.61;25.91;100247.31;5022075;28;20045;-71
2022/06/24 08:48:27;;;;;;;6.28;2.65;;;;;;;32.12;25.72;100202.59;5023092;28;20053;-71
2022/06/24 08:50:54;;;;;;;5.97;2.28;;;;;;;32.62;24.60;100214.78;5024940;28;20099;-71
2022/06/24 08:53:22;;;;;;;5.25;2.20;;;;;;;32.27;24.83;100222.81;5023756;28;20111;-71
2022/06/24 08:55:50;;;;;;;7.20;2.72;;;;;;;31.62;26.07;100219.16;5023570;28;20095;-70
2022/06/24 08:58:18;;;;;;;4.63;2.15;;;;;;;31.86;26.73;100218.19;5027038;28;20061;-71
2022/06/24 09:00:45;;;;;;;5.50;2.40;;;;;;;31.59;25.95;100214.22;5024646;28;20100;-71
2022/06/24 09:03:13;;;;;;;5.95;2.22;;;;;;;31.56;25.41;100220.06;5023458;28;20049;-71
2022/06/24 09:05:40;;;;;;;11.52;1.92;;;;;;;31.24;25.12;100215.84;5025339;28;20073;-71
2022/06/24 09:08:08;;;;;;;8.40;2.35;;;;;;;31.33;27.00;100200.97;5027051;28;20049;-71
2022/06/24 09:10:35;;;;;;;6.05;2.22;;;;;;;31.35;25.87;100209.66;5022796;28;20333;-71
2022/06/24 09:13:02;;;;;;;11.20;2.30;;;;;;;31.56;26.34;100200.28;5023830;28;20099;-71
2022/06/24 09:15:28;;;;;;;6.85;2.50;;;;;;;31.17;25.43;100201.56;5025088;28;20041;-71
2022/06/24 09:17:55;;;;;;;4.43;2.20;;;;;;;31.30;24.65;100194.09;5024950;28;20050;-71
2022/06/24 09:20:25;;;;;;;7.68;2.17;;;;;;;31.65;25.64;100209.75;5023835;28;20108;-71
2022/06/24 09:23:03;;;;;;;4.22;1.70;;;;;;;32.20;23.50;100196.84;5016317;28;20486;-71
2022/06/24 09:25:41;;;;;;;3.95;1.88;;;;;;;31.33;23.93;100206.38;5024811;28;20041;-71
2022/06/24 09:28:08;;;;;;;4.70;2.05;;;;;;;31.53;24.16;100189.88;5024251;28;20091;-71
2022/06/24 09:30:35;;;;;;;5.30;1.90;;;;;;;31.78;23.96;100187.88;5022793;28;20541;-71
2022/06/24 09:33:02;;;;;;;7.85;2.15;;;;;;;32.34;23.85;100182.84;5023854;28;20053;-71
2022/06/24 09:35:34;;;;;;;4.38;1.90;;;;;;;32.14;23.01;100186.94;5024932;28;20055;-71
2022/06/24 09:38:01;;;;;;;6.05;1.92;;;;;;;32.56;22.47;100188.50;5022870;28;20132;-71
2022/06/24 09:40:29;;;;;;;4.35;1.70;;;;;;;32.92;24.26;100186.66;5022236;28;20049;-71
2022/06/24 09:42:58;;;;;;;8.48;1.98;;;;;;;32.51;23.01;100188.41;5025594;28;20456;-71
2022/06/24 09:45:25;;;;;;;3.42;1.90;;;;;;;32.96;22.23;100185.13;5027667;28;20987;-71
2022/06/24 09:47:53;;;;;;;5.90;1.65;;;;;;;33.36;22.06;100188.72;5040473;28;20408;-71
2022/06/24 09:50:21;;;;;;;4.28;1.63;;;;;;;34.14;22.90;100177.19;5028854;28;20166;-71
2022/06/24 09:52:50;;;;;;;2.72;1.50;;;;;;;33.75;21.01;100189.78;5016850;28;20041;-71
2022/06/24 09:55:17;;;;;;;5.85;1.83;;;;;;;33.18;22.19;100167.97;5028543;28;20041;-71
2022/06/24 09:57:44;;;;;;;3.95;1.60;;;;;;;33.17;21.86;100168.22;5037438;28;20517;-71
2022/06/24 10:02:58;;;;;;;2.92;1.67;;;;;;;32.74;21.39;100155.84;5026627;28;20056;-71
2022/06/24 10:05:27;;;;;;;3.38;1.80;;;;;;;33.02;21.47;100162.41;5028518;28;20123;-71
2022/06/24 10:07:56;;;;;;;8.25;1.67;;;;;;;32.52;22.30;100156.66;5025464;28;20049;-71
2022/06/24 10:10:23;;;;;;;6.05;1.65;;;;;;;32.88;22.32;100156.44;5025389;28;20064;-71
2022/06/24 10:12:51;;;;;;;9.80;1.83;;;;;;;33.19;21.15;100166.06;5028536;28;20049;-72
2022/06/24 10:15:18;;;;;;;4.05;1.60;;;;;;;33.42;21.45;100163.28;5029049;28;20041;-71
2022/06/24 10:17:47;;;;;;;2.70;1.50;;;;;;;33.79;21.71;100152.84;5044951;28;20049;-71
2022/06/24 10:20:15;;;;;;;18.20;1.98;;;;;;;33.32;20.82;100157.66;5046014;28;20417;-71
2022/06/24 10:22:45;;;;;;;4.65;1.60;;;;;;;33.76;19.53;100156.06;5027103;28;20487;-71
2022/06/24 10:25:16;;;;;;;6.65;1.60;;;;;;;33.75;19.49;100155.25;5025592;28;20101;-72
2022/06/24 10:28:06;;;;;;;6.18;1.58;;;;;;;34.29;20.88;100143.94;5027311;28;20103;-71
2022/06/24 10:30:55;;;;;;;15.18;2.30;;;;;;;33.49;20.25;100150.38;5025413;28;20533;-71
2022/06/24 10:33:23;;;;;;;5.57;1.77;;;;;;;33.82;21.29;100157.81;5025807;28;20456;-70
2022/06/24 10:35:58;;;;;;;5.43;1.90;;;;;;;33.84;21.67;100141.25;5046208;28;20071;-70
2022/06/24 10:38:26;;;;;;;4.30;1.92;;;;;;;33.62;20.98;100160.97;5045960;28;20186;-70
2022/06/24 10:40:57;;;;;;;9.07;3.00;;;;;;;32.91;24.54;100169.53;5044726;28;20507;-70
2022/06/24 10:43:37;;;;;;;7.00;2.53;;;;;;;32.68;25.29;100161.41;5044842;28;20103;-70
2022/06/24 10:46:17;;;;;;;6.88;3.45;;;;;;;32.70;25.78;100157.41;5025217;28;20186;-70
2022/06/24 10:48:57;;;;;;;13.82;3.42;;;;;;;32.28;27.05;100163.97;5021423;28;20405;-71
2022/06/24 10:51:24;;;;;;;8.85;3.05;;;;;;;32.51;25.67;100147.69;5036106;28;20045;-71
2022/06/24 10:54:12;;;;;;;6.63;2.70;;;;;;;32.84;25.49;100166.13;5025188;28;20085;-67
2022/06/24 10:56:42;;;;;;;10.52;3.60;;;;;;;32.16;25.90;100166.66;5005989;28;20053;-67
2022/06/24 10:59:09;;;;;;;8.70;3.15;;;;;;;32.17;26.72;100176.47;5006323;28;20045;-68
2022/06/24 11:01:38;;;;;;;8.18;3.20;;;;;;;31.84;27.63;100154.41;5007783;28;20049;-68
2022/06/24 11:04:06;;;;;;;9.07;3.80;;;;;;;31.63;28.95;100163.06;5044930;28;20087;-67
2022/06/24 11:06:32;;;;;;;11.50;3.67;;;;;;;31.72;29.58;100169.81;5029911;28;20076;-68
2022/06/24 11:09:06;;;;;;;7.03;4.18;;;;;;;31.58;29.90;100171.88;5024640;28;20045;-68
2022/06/24 11:11:32;;;;;;;9.13;4.40;;;;;;;31.78;31.07;100182.47;5027079;28;20059;-68
2022/06/24 11:14:00;;;;;;;18.50;5.68;;;;;;;31.64;34.54;100187.22;5033530;28;20102;-65
2022/06/24 11:16:27;;;;;;;8.77;5.30;;;;;;;31.55;34.68;100188.63;5028044;28;20497;-65
2022/06/24 11:18:54;;;;;;;20.52;5.60;;;;;;;30.83;36.23;100190.22;5026035;28;20049;-65
2022/06/24 11:21:20;;;;;;;15.98;6.07;;;;;;;30.42;37.00;100198.09;5023293;28;20494;-65
2022/06/24 11:23:48;;;;;;;19.48;6.28;;;;;;;30.56;37.22;100188.00;5024624;28;20125;-65
2022/06/24 11:26:16;;;;;;;20.48;5.10;;;;;;;30.41;37.59;100191.03;5026635;28;20049;-65
2022/06/24 11:28:43;;;;;;;15.88;3.58;;;;;;;30.01;37.01;100209.41;5026041;28;20437;-66
2022/06/24 11:31:19;;;;;;;10.07;2.80;;;;;;;29.91;38.29;100215.31;5024262;28;20149;-66
2022/06/24 11:33:47;;;;;;;13.23;2.55;;;;;;;29.23;39.86;100219.50;5025206;28;20048;-65
2022/06/24 11:36:14;;;;;;;22.00;2.65;;;;;;;28.09;42.12;100220.81;5019511;28;20104;-65
2022/06/24 11:38:52;;;;;;;9.43;2.38;;;;;;;27.56;41.51;100227.91;5024060;28;20049;-66